sensor_id;sensor_type;location;lat;lon;timestamp;P1;durP1;ratioP1;P2;durP2;ratioP2
62927;SDS011;51070;52.236;-0.892;2023-06-10T00:02:02;15.80;;;7.00;;
62927;SDS011;51070;52.236;-0.892;2023-06-10T00:04:29;17.20;;;7.90;;
62927;SDS011;51070;52.236;-0.892;2023-06-10T00:06:54;15.40;;;6.90;;
62927;SDS011;51070;52.236;-0.892;2023-06-10T00:09:20;17.00;;;6.60;;
62927;SDS011;51070;52.236;-0.892;2023-06-10T00:11:46;11.20;;;5.70;;
62927;SDS011;51070;52.236;-0.892;2023-06-10T00:14:12;16.20;;;6.00;;
62927;SDS011;51070;52.236;-0.892;2023-06-10T00:16:37;15.50;;;7.20;;
62927;SDS011;51070;52.236;-0.892;2023-06-10T00:19:04;16.10;;;6.50;;
62927;SDS011;51070;52.236;-0.892;2023-06-10T00:21:31;11.70;;;5.70;;
62927;SDS011;51070;52.236;-0.892;2023-06-10T00:24:03;15.00;;;6.40;;
62927;SDS011;51070;52.236;-0.892;2023-06-10T00:26:30;10.30;;;5.70;;
62927;SDS011;51070;52.236;-0.892;2023-06-10T00:28:56;12.70;;;6.10;;
62927;SDS011;51070;52.236;-0.892;2023-06-10T00:31:21;13.90;;;6.20;;
62927;SDS011;51070;52.236;-0.892;2023-06-10T00:33:47;14.60;;;6.20;;
62927;SDS011;51070;52.236;-0.892;2023-06-10T00:36:12;14.60;;;6.00;;
62927;SDS011;51070;52.236;-0.892;2023-06-10T00:38:37;14.90;;;6.10;;
62927;SDS011;51070;52.236;-0.892;2023-06-10T00:41:03;17.80;;;6.60;;
62927;SDS011;51070;52.236;-0.892;2023-06-10T00:43:29;13.50;;;5.60;;
62927;SDS011;51070;52.236;-0.892;2023-06-10T00:45:54;10.30;;;5.80;;
62927;SDS011;51070;52.236;-0.892;2023-06-10T00:48:19;11.70;;;6.10;;
62927;SDS011;51070;52.236;-0.892;2023-06-10T00:50:46;14.70;;;6.20;;
62927;SDS011;51070;52.236;-0.892;2023-06-10T00:53:12;10.60;;;5.60;;
62927;SDS011;51070;52.236;-0.892;2023-06-10T00:55:38;12.50;;;6.10;;
62927;SDS011;51070;52.236;-0.892;2023-06-10T00:58:05;10.60;;;4.90;;
62927;SDS011;51070;52.236;-0.892;2023-06-10T01:00:30;11.40;;;5.50;;
62927;SDS011;51070;52.236;-0.892;2023-06-10T01:02:56;10.30;;;5.00;;
62927;SDS011;51070;52.236;-0.892;2023-06-10T01:05:23;11.90;;;5.90;;
62927;SDS011;51070;52.236;-0.892;2023-06-10T01:08:03;11.90;;;5.70;;
62927;SDS011;51070;52.236;-0.892;2023-06-10T01:10:38;11.10;;;4.60;;
62927;SDS011;51070;52.236;-0.892;2023-06-10T01:13:11;14.10;;;5.30;;
62927;SDS011;51070;52.236;-0.892;2023-06-10T01:15:39;14.30;;;6.30;;
62927;SDS011;51070;52.236;-0.892;2023-06-10T01:18:05;14.00;;;5.80;;
62927;SDS011;51070;52.236;-0.892;2023-06-10T01:20:35;8.70;;;4.20;;
62927;SDS011;51070;52.236;-0.892;2023-06-10T01:23:05;13.50;;;5.50;;
62927;SDS011;51070;52.236;-0.892;2023-06-10T01:25:31;15.00;;;5.70;;
62927;SDS011;51070;52.236;-0.892;2023-06-10T01:31:06;17.30;;;6.50;;
62927;SDS011;51070;52.236;-0.892;2023-06-10T01:33:45;18.90;;;6.10;;
62927;SDS011;51070;52.236;-0.892;2023-06-10T01:36:13;13.30;;;5.40;;
62927;SDS011;51070;52.236;-0.892;2023-06-10T01:38:44;16.70;;;6.50;;
62927;SDS011;51070;52.236;-0.892;2023-06-10T01:41:15;13.70;;;5.50;;
62927;SDS011;51070;52.236;-0.892;2023-06-10T01:43:45;11.80;;;5.40;;
62927;SDS011;51070;52.236;-0.892;2023-06-10T01:46:11;10.80;;;5.40;;
62927;SDS011;51070;52.236;-0.892;2023-06-10T01:48:41;11.20;;;5.50;;
62927;SDS011;51070;52.236;-0.892;2023-06-10T01:51:07;13.60;;;5.00;;
62927;SDS011;51070;52.236;-0.892;2023-06-10T01:53:32;16.70;;;5.60;;
62927;SDS011;51070;52.236;-0.892;2023-06-10T01:55:58;11.40;;;4.60;;
62927;SDS011;51070;52.236;-0.892;2023-06-10T01:58:23;13.00;;;5.10;;
62927;SDS011;51070;52.236;-0.892;2023-06-10T02:00:48;12.60;;;5.70;;
62927;SDS011;51070;52.236;-0.892;2023-06-10T02:03:14;10.90;;;4.80;;
62927;SDS011;51070;52.236;-0.892;2023-06-10T02:05:39;9.80;;;6.00;;
62927;SDS011;51070;52.236;-0.892;2023-06-10T02:08:05;12.00;;;5.40;;
62927;SDS011;51070;52.236;-0.892;2023-06-10T02:10:31;14.30;;;5.20;;
62927;SDS011;51070;52.236;-0.892;2023-06-10T02:12:56;10.30;;;5.50;;
62927;SDS011;51070;52.236;-0.892;2023-06-10T02:15:22;14.50;;;5.80;;
62927;SDS011;51070;52.236;-0.892;2023-06-10T02:17:47;13.20;;;5.80;;
62927;SDS011;51070;52.236;-0.892;2023-06-10T02:20:16;10.20;;;5.00;;
62927;SDS011;51070;52.236;-0.892;2023-06-10T02:22:41;10.00;;;4.70;;
62927;SDS011;51070;52.236;-0.892;2023-06-10T02:25:07;17.00;;;5.60;;
62927;SDS011;51070;52.236;-0.892;2023-06-10T02:27:33;8.80;;;4.80;;
62927;SDS011;51070;52.236;-0.892;2023-06-10T02:29:59;10.10;;;5.00;;
62927;SDS011;51070;52.236;-0.892;2023-06-10T02:32:25;11.70;;;5.00;;
62927;SDS011;51070;52.236;-0.892;2023-06-10T02:34:50;11.00;;;5.20;;
62927;SDS011;51070;52.236;-0.892;2023-06-10T02:37:16;11.00;;;4.70;;
62927;SDS011;51070;52.236;-0.892;2023-06-10T02:39:42;13.10;;;6.40;;
62927;SDS011;51070;52.236;-0.892;2023-06-10T02:42:08;11.90;;;4.60;;
62927;SDS011;51070;52.236;-0.892;2023-06-10T02:44:34;9.60;;;4.70;;
62927;SDS011;51070;52.236;-0.892;2023-06-10T02:46:59;10.80;;;5.00;;
62927;SDS011;51070;52.236;-0.892;2023-06-10T02:49:25;13.00;;;4.40;;
62927;SDS011;51070;52.236;-0.892;2023-06-10T02:51:53;13.80;;;5.00;;
62927;SDS011;51070;52.236;-0.892;2023-06-10T02:54:19;16.50;;;5.20;;
62927;SDS011;51070;52.236;-0.892;2023-06-10T02:56:45;12.40;;;5.20;;
62927;SDS011;51070;52.236;-0.892;2023-06-10T02:59:13;8.10;;;5.30;;
62927;SDS011;51070;52.236;-0.892;2023-06-10T03:01:39;7.50;;;4.90;;
62927;SDS011;51070;52.236;-0.892;2023-06-10T03:04:05;13.50;;;6.20;;
62927;SDS011;51070;52.236;-0.892;2023-06-10T03:06:31;15.50;;;5.40;;
62927;SDS011;51070;52.236;-0.892;2023-06-10T03:08:58;11.00;;;5.30;;
62927;SDS011;51070;52.236;-0.892;2023-06-10T03:11:23;13.30;;;5.20;;
62927;SDS011;51070;52.236;-0.892;2023-06-10T03:13:50;11.70;;;5.10;;
62927;SDS011;51070;52.236;-0.892;2023-06-10T03:16:16;10.90;;;4.90;;
62927;SDS011;51070;52.236;-0.892;2023-06-10T03:18:42;11.50;;;4.70;;
62927;SDS011;51070;52.236;-0.892;2023-06-10T03:21:08;15.10;;;5.70;;
62927;SDS011;51070;52.236;-0.892;2023-06-10T03:23:34;15.30;;;5.80;;
62927;SDS011;51070;52.236;-0.892;2023-06-10T03:25:59;8.10;;;4.70;;
62927;SDS011;51070;52.236;-0.892;2023-06-10T03:28:25;19.10;;;5.10;;
62927;SDS011;51070;52.236;-0.892;2023-06-10T03:30:51;10.20;;;4.80;;
62927;SDS011;51070;52.236;-0.892;2023-06-10T03:33:17;16.40;;;5.70;;
62927;SDS011;51070;52.236;-0.892;2023-06-10T03:35:42;14.80;;;5.00;;
62927;SDS011;51070;52.236;-0.892;2023-06-10T03:38:07;17.00;;;5.00;;
62927;SDS011;51070;52.236;-0.892;2023-06-10T03:40:33;15.30;;;5.90;;
62927;SDS011;51070;52.236;-0.892;2023-06-10T03:42:59;16.10;;;5.10;;
62927;SDS011;51070;52.236;-0.892;2023-06-10T03:45:25;10.10;;;4.60;;
62927;SDS011;51070;52.236;-0.892;2023-06-10T03:47:53;15.70;;;5.70;;
62927;SDS011;51070;52.236;-0.892;2023-06-10T03:50:19;12.10;;;5.90;;
62927;SDS011;51070;52.236;-0.892;2023-06-10T03:52:45;12.70;;;5.30;;
62927;SDS011;51070;52.236;-0.892;2023-06-10T03:55:11;14.10;;;5.60;;
62927;SDS011;51070;52.236;-0.892;2023-06-10T03:57:38;9.20;;;4.80;;
62927;SDS011;51070;52.236;-0.892;2023-06-10T04:00:05;10.90;;;4.70;;
62927;SDS011;51070;52.236;-0.892;2023-06-10T04:02:36;14.30;;;6.00;;
62927;SDS011;51070;52.236;-0.892;2023-06-10T04:05:02;11.30;;;5.50;;
62927;SDS011;51070;52.236;-0.892;2023-06-10T04:07:27;12.50;;;5.30;;
62927;SDS011;51070;52.236;-0.892;2023-06-10T04:09:53;9.50;;;5.50;;
62927;SDS011;51070;52.236;-0.892;2023-06-10T04:12:18;14.10;;;5.30;;
62927;SDS011;51070;52.236;-0.892;2023-06-10T04:14:44;9.00;;;4.60;;
62927;SDS011;51070;52.236;-0.892;2023-06-10T04:17:09;13.80;;;5.80;;
62927;SDS011;51070;52.236;-0.892;2023-06-10T04:19:35;11.00;;;5.10;;
62927;SDS011;51070;52.236;-0.892;2023-06-10T04:22:01;12.90;;;5.10;;
62927;SDS011;51070;52.236;-0.892;2023-06-10T04:24:27;18.10;;;6.10;;
62927;SDS011;51070;52.236;-0.892;2023-06-10T04:26:53;10.60;;;5.80;;
62927;SDS011;51070;52.236;-0.892;2023-06-10T04:29:18;9.40;;;5.40;;
62927;SDS011;51070;52.236;-0.892;2023-06-10T04:31:43;12.40;;;5.10;;
62927;SDS011;51070;52.236;-0.892;2023-06-10T04:34:11;13.30;;;5.00;;
62927;SDS011;51070;52.236;-0.892;2023-06-10T04:36:37;14.80;;;5.80;;
62927;SDS011;51070;52.236;-0.892;2023-06-10T04:39:03;14.30;;;5.20;;
62927;SDS011;51070;52.236;-0.892;2023-06-10T04:41:28;11.00;;;5.40;;
62927;SDS011;51070;52.236;-0.892;2023-06-10T04:43:53;14.00;;;5.40;;
62927;SDS011;51070;52.236;-0.892;2023-06-10T04:46:19;13.20;;;5.30;;
62927;SDS011;51070;52.236;-0.892;2023-06-10T04:48:44;15.20;;;5.20;;
62927;SDS011;51070;52.236;-0.892;2023-06-10T04:51:12;14.00;;;5.40;;
62927;SDS011;51070;52.236;-0.892;2023-06-10T04:53:38;14.70;;;5.30;;
62927;SDS011;51070;52.236;-0.892;2023-06-10T04:56:04;12.30;;;4.70;;
62927;SDS011;51070;52.236;-0.892;2023-06-10T04:58:29;13.80;;;5.20;;
62927;SDS011;51070;52.236;-0.892;2023-06-10T05:00:55;11.70;;;5.00;;
62927;SDS011;51070;52.236;-0.892;2023-06-10T05:03:21;12.90;;;6.00;;
62927;SDS011;51070;52.236;-0.892;2023-06-10T05:05:46;11.30;;;4.80;;
62927;SDS011;51070;52.236;-0.892;2023-06-10T05:08:12;13.90;;;5.60;;
62927;SDS011;51070;52.236;-0.892;2023-06-10T05:10:37;12.60;;;5.10;;
62927;SDS011;51070;52.236;-0.892;2023-06-10T05:13:03;14.30;;;5.70;;
62927;SDS011;51070;52.236;-0.892;2023-06-10T05:15:28;14.00;;;5.50;;
62927;SDS011;51070;52.236;-0.892;2023-06-10T05:17:56;10.70;;;5.70;;
62927;SDS011;51070;52.236;-0.892;2023-06-10T05:20:23;10.00;;;5.20;;
62927;SDS011;51070;52.236;-0.892;2023-06-10T05:22:50;12.10;;;5.50;;
62927;SDS011;51070;52.236;-0.892;2023-06-10T05:25:15;11.20;;;5.20;;
62927;SDS011;51070;52.236;-0.892;2023-06-10T05:27:41;13.40;;;6.20;;
62927;SDS011;51070;52.236;-0.892;2023-06-10T05:30:08;16.60;;;5.90;;
62927;SDS011;51070;52.236;-0.892;2023-06-10T05:32:35;19.70;;;5.60;;
62927;SDS011;51070;52.236;-0.892;2023-06-10T05:35:01;12.50;;;5.30;;
62927;SDS011;51070;52.236;-0.892;2023-06-10T05:37:28;11.40;;;5.20;;
62927;SDS011;51070;52.236;-0.892;2023-06-10T05:39:54;12.20;;;5.90;;
62927;SDS011;51070;52.236;-0.892;2023-06-10T05:42:20;11.00;;;6.40;;
62927;SDS011;51070;52.236;-0.892;2023-06-10T05:44:45;11.70;;;5.60;;
62927;SDS011;51070;52.236;-0.892;2023-06-10T05:47:10;15.50;;;5.80;;
62927;SDS011;51070;52.236;-0.892;2023-06-10T05:49:36;15.70;;;5.40;;
62927;SDS011;51070;52.236;-0.892;2023-06-10T05:52:01;16.10;;;6.20;;
62927;SDS011;51070;52.236;-0.892;2023-06-10T05:54:27;11.20;;;5.20;;
62927;SDS011;51070;52.236;-0.892;2023-06-10T05:56:52;15.60;;;5.50;;
62927;SDS011;51070;52.236;-0.892;2023-06-10T05:59:17;13.30;;;5.30;;
62927;SDS011;51070;52.236;-0.892;2023-06-10T06:01:43;12.10;;;6.10;;
62927;SDS011;51070;52.236;-0.892;2023-06-10T06:04:08;13.50;;;5.90;;
62927;SDS011;51070;52.236;-0.892;2023-06-10T06:06:34;12.70;;;5.50;;
62927;SDS011;51070;52.236;-0.892;2023-06-10T06:09:00;13.10;;;5.90;;
62927;SDS011;51070;52.236;-0.892;2023-06-10T06:11:25;9.70;;;5.00;;
62927;SDS011;51070;52.236;-0.892;2023-06-10T06:13:51;10.80;;;4.90;;
62927;SDS011;51070;52.236;-0.892;2023-06-10T06:16:17;13.20;;;5.30;;
62927;SDS011;51070;52.236;-0.892;2023-06-10T06:18:43;14.80;;;5.40;;
62927;SDS011;51070;52.236;-0.892;2023-06-10T06:21:09;12.80;;;4.90;;
62927;SDS011;51070;52.236;-0.892;2023-06-10T06:23:34;13.00;;;5.30;;
62927;SDS011;51070;52.236;-0.892;2023-06-10T06:26:00;12.20;;;5.10;;
62927;SDS011;51070;52.236;-0.892;2023-06-10T06:28:25;11.70;;;5.40;;
62927;SDS011;51070;52.236;-0.892;2023-06-10T06:30:54;10.80;;;5.30;;
62927;SDS011;51070;52.236;-0.892;2023-06-10T06:33:21;7.80;;;5.00;;
62927;SDS011;51070;52.236;-0.892;2023-06-10T06:35:46;11.20;;;5.30;;
62927;SDS011;51070;52.236;-0.892;2023-06-10T06:38:11;13.00;;;5.50;;
62927;SDS011;51070;52.236;-0.892;2023-06-10T06:40:37;11.40;;;5.30;;
62927;SDS011;51070;52.236;-0.892;2023-06-10T06:43:02;11.40;;;5.20;;
62927;SDS011;51070;52.236;-0.892;2023-06-10T06:45:28;12.60;;;5.40;;
62927;SDS011;51070;52.236;-0.892;2023-06-10T06:47:53;12.50;;;5.80;;
62927;SDS011;51070;52.236;-0.892;2023-06-10T06:50:18;12.30;;;5.10;;
62927;SDS011;51070;52.236;-0.892;2023-06-10T06:52:44;10.50;;;4.80;;
62927;SDS011;51070;52.236;-0.892;2023-06-10T06:55:09;12.60;;;5.30;;
62927;SDS011;51070;52.236;-0.892;2023-06-10T06:57:35;9.20;;;5.30;;
62927;SDS011;51070;52.236;-0.892;2023-06-10T07:00:01;9.80;;;5.60;;
62927;SDS011;51070;52.236;-0.892;2023-06-10T07:02:27;9.60;;;5.20;;
62927;SDS011;51070;52.236;-0.892;2023-06-10T07:04:53;9.80;;;5.20;;
62927;SDS011;51070;52.236;-0.892;2023-06-10T07:07:21;13.70;;;5.80;;
62927;SDS011;51070;52.236;-0.892;2023-06-10T07:09:47;10.60;;;5.60;;
62927;SDS011;51070;52.236;-0.892;2023-06-10T07:12:12;7.50;;;5.10;;
62927;SDS011;51070;52.236;-0.892;2023-06-10T07:14:37;10.50;;;5.00;;
62927;SDS011;51070;52.236;-0.892;2023-06-10T07:17:03;10.60;;;5.30;;
62927;SDS011;51070;52.236;-0.892;2023-06-10T07:19:28;11.80;;;5.60;;
62927;SDS011;51070;52.236;-0.892;2023-06-10T07:21:54;9.70;;;5.70;;
62927;SDS011;51070;52.236;-0.892;2023-06-10T07:24:19;8.20;;;5.00;;
62927;SDS011;51070;52.236;-0.892;2023-06-10T07:26:45;12.10;;;6.10;;
62927;SDS011;51070;52.236;-0.892;2023-06-10T07:29:10;9.90;;;5.40;;
62927;SDS011;51070;52.236;-0.892;2023-06-10T07:31:36;8.70;;;5.10;;
62927;SDS011;51070;52.236;-0.892;2023-06-10T07:34:01;9.30;;;5.50;;
62927;SDS011;51070;52.236;-0.892;2023-06-10T07:36:26;11.50;;;5.80;;
62927;SDS011;51070;52.236;-0.892;2023-06-10T07:38:54;11.30;;;5.80;;
62927;SDS011;51070;52.236;-0.892;2023-06-10T07:43:45;7.60;;;5.20;;
62927;SDS011;51070;52.236;-0.892;2023-06-10T07:46:10;7.80;;;5.30;;
62927;SDS011;51070;52.236;-0.892;2023-06-10T07:48:36;8.50;;;5.80;;
62927;SDS011;51070;52.236;-0.892;2023-06-10T07:51:01;8.00;;;5.20;;
62927;SDS011;51070;52.236;-0.892;2023-06-10T07:53:27;8.40;;;5.10;;
62927;SDS011;51070;52.236;-0.892;2023-06-10T07:55:52;9.20;;;5.80;;
62927;SDS011;51070;52.236;-0.892;2023-06-10T08:00:44;8.60;;;5.60;;
62927;SDS011;51070;52.236;-0.892;2023-06-10T08:03:09;10.70;;;5.50;;
62927;SDS011;51070;52.236;-0.892;2023-06-10T08:05:35;9.00;;;5.50;;
62927;SDS011;51070;52.236;-0.892;2023-06-10T08:08:00;11.40;;;6.50;;
62927;SDS011;51070;52.236;-0.892;2023-06-10T08:10:25;8.60;;;6.10;;
62927;SDS011;51070;52.236;-0.892;2023-06-10T08:12:51;8.90;;;5.60;;
62927;SDS011;51070;52.236;-0.892;2023-06-10T08:15:16;9.90;;;5.50;;
62927;SDS011;51070;52.236;-0.892;2023-06-10T08:17:42;9.70;;;5.80;;
62927;SDS011;51070;52.236;-0.892;2023-06-10T08:20:07;7.30;;;5.00;;
62927;SDS011;51070;52.236;-0.892;2023-06-10T08:24:59;11.30;;;5.60;;
62927;SDS011;51070;52.236;-0.892;2023-06-10T08:27:24;9.40;;;5.70;;
62927;SDS011;51070;52.236;-0.892;2023-06-10T08:29:50;10.20;;;5.60;;
62927;SDS011;51070;52.236;-0.892;2023-06-10T08:32:15;10.60;;;5.80;;
62927;SDS011;51070;52.236;-0.892;2023-06-10T08:34:41;10.50;;;5.40;;
62927;SDS011;51070;52.236;-0.892;2023-06-10T08:37:06;10.00;;;5.80;;
62927;SDS011;51070;52.236;-0.892;2023-06-10T08:39:32;10.50;;;5.70;;
62927;SDS011;51070;52.236;-0.892;2023-06-10T08:45:08;7.70;;;5.10;;
62927;SDS011;51070;52.236;-0.892;2023-06-10T08:47:42;8.30;;;5.90;;
62927;SDS011;51070;52.236;-0.892;2023-06-10T08:50:11;9.30;;;5.80;;
62927;SDS011;51070;52.236;-0.892;2023-06-10T08:52:37;9.70;;;5.80;;
62927;SDS011;51070;52.236;-0.892;2023-06-10T08:55:18;10.80;;;6.50;;
62927;SDS011;51070;52.236;-0.892;2023-06-10T08:57:47;11.20;;;6.00;;
62927;SDS011;51070;52.236;-0.892;2023-06-10T09:00:15;10.60;;;6.40;;
62927;SDS011;51070;52.236;-0.892;2023-06-10T09:02:41;8.90;;;5.60;;
62927;SDS011;51070;52.236;-0.892;2023-06-10T09:05:08;8.10;;;5.50;;
62927;SDS011;51070;52.236;-0.892;2023-06-10T09:07:34;10.70;;;6.00;;
62927;SDS011;51070;52.236;-0.892;2023-06-10T09:10:01;9.00;;;5.40;;
62927;SDS011;51070;52.236;-0.892;2023-06-10T09:12:32;8.30;;;5.70;;
62927;SDS011;51070;52.236;-0.892;2023-06-10T09:14:59;9.10;;;5.60;;
62927;SDS011;51070;52.236;-0.892;2023-06-10T09:17:25;10.80;;;6.40;;
62927;SDS011;51070;52.236;-0.892;2023-06-10T09:19:51;13.20;;;6.10;;
62927;SDS011;51070;52.236;-0.892;2023-06-10T09:22:18;9.70;;;5.90;;
62927;SDS011;51070;52.236;-0.892;2023-06-10T09:24:46;10.20;;;6.40;;
62927;SDS011;51070;52.236;-0.892;2023-06-10T09:27:12;10.20;;;6.00;;
62927;SDS011;51070;52.236;-0.892;2023-06-10T09:29:47;10.60;;;5.80;;
62927;SDS011;51070;52.236;-0.892;2023-06-10T09:32:13;9.20;;;6.10;;
62927;SDS011;51070;52.236;-0.892;2023-06-10T09:34:39;9.50;;;5.90;;
62927;SDS011;51070;52.236;-0.892;2023-06-10T09:37:05;10.20;;;5.90;;
62927;SDS011;51070;52.236;-0.892;2023-06-10T09:39:30;11.90;;;6.50;;
62927;SDS011;51070;52.236;-0.892;2023-06-10T09:41:56;8.80;;;6.10;;
62927;SDS011;51070;52.236;-0.892;2023-06-10T09:44:21;9.50;;;5.90;;
62927;SDS011;51070;52.236;-0.892;2023-06-10T09:46:47;9.80;;;6.80;;
62927;SDS011;51070;52.236;-0.892;2023-06-10T09:49:18;10.60;;;6.20;;
62927;SDS011;51070;52.236;-0.892;2023-06-10T09:51:53;12.70;;;6.70;;
62927;SDS011;51070;52.236;-0.892;2023-06-10T09:56:52;10.90;;;6.00;;
62927;SDS011;51070;52.236;-0.892;2023-06-10T09:59:30;10.70;;;5.90;;
62927;SDS011;51070;52.236;-0.892;2023-06-10T10:01:59;9.40;;;6.60;;
62927;SDS011;51070;52.236;-0.892;2023-06-10T10:04:25;11.20;;;6.60;;
62927;SDS011;51070;52.236;-0.892;2023-06-10T10:06:51;10.80;;;6.80;;
62927;SDS011;51070;52.236;-0.892;2023-06-10T10:09:17;12.30;;;7.00;;
62927;SDS011;51070;52.236;-0.892;2023-06-10T10:11:43;10.80;;;5.50;;
62927;SDS011;51070;52.236;-0.892;2023-06-10T10:14:09;10.80;;;6.20;;
62927;SDS011;51070;52.236;-0.892;2023-06-10T10:16:37;7.00;;;5.90;;
62927;SDS011;51070;52.236;-0.892;2023-06-10T10:19:11;7.90;;;5.80;;
62927;SDS011;51070;52.236;-0.892;2023-06-10T10:21:43;12.90;;;6.90;;
62927;SDS011;51070;52.236;-0.892;2023-06-10T10:24:20;11.40;;;6.70;;
62927;SDS011;51070;52.236;-0.892;2023-06-10T10:26:47;11.70;;;7.10;;
62927;SDS011;51070;52.236;-0.892;2023-06-10T10:29:24;9.60;;;6.20;;
62927;SDS011;51070;52.236;-0.892;2023-06-10T10:31:50;15.40;;;6.10;;
62927;SDS011;51070;52.236;-0.892;2023-06-10T10:34:21;8.60;;;6.00;;
62927;SDS011;51070;52.236;-0.892;2023-06-10T10:36:53;9.60;;;6.40;;
62927;SDS011;51070;52.236;-0.892;2023-06-10T10:39:19;9.70;;;5.60;;
62927;SDS011;51070;52.236;-0.892;2023-06-10T10:41:45;12.10;;;6.90;;
62927;SDS011;51070;52.236;-0.892;2023-06-10T10:44:13;10.20;;;6.50;;
62927;SDS011;51070;52.236;-0.892;2023-06-10T10:46:42;13.20;;;6.40;;
62927;SDS011;51070;52.236;-0.892;2023-06-10T10:49:10;9.30;;;5.50;;
62927;SDS011;51070;52.236;-0.892;2023-06-10T10:51:37;9.70;;;6.40;;
62927;SDS011;51070;52.236;-0.892;2023-06-10T10:54:19;9.40;;;6.20;;
62927;SDS011;51070;52.236;-0.892;2023-06-10T10:57:11;13.00;;;6.70;;
62927;SDS011;51070;52.236;-0.892;2023-06-10T11:05:09;8.30;;;5.60;;
62927;SDS011;51070;52.236;-0.892;2023-06-10T11:07:37;9.20;;;6.10;;
62927;SDS011;51070;52.236;-0.892;2023-06-10T11:15:09;11.60;;;7.00;;
62927;SDS011;51070;52.236;-0.892;2023-06-10T11:17:35;13.70;;;6.80;;
62927;SDS011;51070;52.236;-0.892;2023-06-10T11:20:00;8.50;;;6.00;;
62927;SDS011;51070;52.236;-0.892;2023-06-10T11:22:25;11.70;;;6.60;;
62927;SDS011;51070;52.236;-0.892;2023-06-10T11:24:51;9.40;;;6.30;;
62927;SDS011;51070;52.236;-0.892;2023-06-10T11:27:20;12.00;;;6.20;;
62927;SDS011;51070;52.236;-0.892;2023-06-10T11:32:33;9.00;;;6.50;;
62927;SDS011;51070;52.236;-0.892;2023-06-10T11:35:00;8.40;;;6.50;;
62927;SDS011;51070;52.236;-0.892;2023-06-10T11:37:29;9.80;;;6.50;;
62927;SDS011;51070;52.236;-0.892;2023-06-10T11:39:55;9.90;;;6.40;;
62927;SDS011;51070;52.236;-0.892;2023-06-10T11:42:21;11.80;;;6.90;;
62927;SDS011;51070;52.236;-0.892;2023-06-10T11:44:51;10.00;;;6.60;;
62927;SDS011;51070;52.236;-0.892;2023-06-10T11:47:18;8.80;;;7.00;;
62927;SDS011;51070;52.236;-0.892;2023-06-10T11:49:44;8.80;;;6.20;;
62927;SDS011;51070;52.236;-0.892;2023-06-10T11:52:10;8.70;;;6.50;;
62927;SDS011;51070;52.236;-0.892;2023-06-10T11:54:37;12.30;;;7.30;;
62927;SDS011;51070;52.236;-0.892;2023-06-10T11:57:02;8.30;;;6.70;;
62927;SDS011;51070;52.236;-0.892;2023-06-10T11:59:29;7.30;;;6.10;;
62927;SDS011;51070;52.236;-0.892;2023-06-10T12:01:55;8.60;;;6.80;;
62927;SDS011;51070;52.236;-0.892;2023-06-10T12:04:21;8.30;;;6.20;;
62927;SDS011;51070;52.236;-0.892;2023-06-10T12:09:20;9.20;;;6.40;;
62927;SDS011;51070;52.236;-0.892;2023-06-10T12:11:50;7.90;;;6.60;;
62927;SDS011;51070;52.236;-0.892;2023-06-10T12:20:08;8.40;;;6.40;;
62927;SDS011;51070;52.236;-0.892;2023-06-10T12:22:49;8.70;;;6.10;;
62927;SDS011;51070;52.236;-0.892;2023-06-10T12:25:14;10.90;;;6.80;;
62927;SDS011;51070;52.236;-0.892;2023-06-10T12:27:49;6.60;;;5.90;;
62927;SDS011;51070;52.236;-0.892;2023-06-10T12:30:21;7.40;;;6.70;;
62927;SDS011;51070;52.236;-0.892;2023-06-10T12:32:49;9.60;;;6.90;;
62927;SDS011;51070;52.236;-0.892;2023-06-10T12:35:19;6.90;;;6.20;;
62927;SDS011;51070;52.236;-0.892;2023-06-10T12:37:56;8.80;;;6.00;;
62927;SDS011;51070;52.236;-0.892;2023-06-10T12:40:26;10.10;;;7.10;;
62927;SDS011;51070;52.236;-0.892;2023-06-10T12:42:54;7.80;;;6.20;;
62927;SDS011;51070;52.236;-0.892;2023-06-10T12:48:03;8.80;;;7.10;;
62927;SDS011;51070;52.236;-0.892;2023-06-10T12:50:36;7.50;;;6.50;;
62927;SDS011;51070;52.236;-0.892;2023-06-10T12:53:04;7.00;;;6.40;;
62927;SDS011;51070;52.236;-0.892;2023-06-10T12:55:30;7.70;;;6.10;;
62927;SDS011;51070;52.236;-0.892;2023-06-10T12:57:57;7.20;;;6.00;;
62927;SDS011;51070;52.236;-0.892;2023-06-10T13:00:23;7.70;;;6.50;;
62927;SDS011;51070;52.236;-0.892;2023-06-10T13:02:54;7.40;;;6.40;;
62927;SDS011;51070;52.236;-0.892;2023-06-10T13:05:26;10.80;;;6.70;;
62927;SDS011;51070;52.236;-0.892;2023-06-10T13:07:51;6.90;;;6.30;;
62927;SDS011;51070;52.236;-0.892;2023-06-10T13:10:17;7.60;;;6.60;;
62927;SDS011;51070;52.236;-0.892;2023-06-10T13:12:43;7.50;;;6.00;;
62927;SDS011;51070;52.236;-0.892;2023-06-10T13:15:10;8.70;;;6.40;;
62927;SDS011;51070;52.236;-0.892;2023-06-10T13:17:36;6.60;;;5.90;;
62927;SDS011;51070;52.236;-0.892;2023-06-10T13:20:06;6.80;;;6.10;;
62927;SDS011;51070;52.236;-0.892;2023-06-10T13:22:33;8.70;;;5.90;;
62927;SDS011;51070;52.236;-0.892;2023-06-10T13:25:04;6.40;;;5.80;;
62927;SDS011;51070;52.236;-0.892;2023-06-10T13:27:32;6.40;;;5.50;;
62927;SDS011;51070;52.236;-0.892;2023-06-10T13:29:58;6.50;;;5.80;;
62927;SDS011;51070;52.236;-0.892;2023-06-10T13:32:23;6.60;;;5.90;;
62927;SDS011;51070;52.236;-0.892;2023-06-10T13:34:48;5.50;;;5.00;;
62927;SDS011;51070;52.236;-0.892;2023-06-10T13:37:18;7.30;;;6.00;;
62927;SDS011;51070;52.236;-0.892;2023-06-10T13:39:44;5.70;;;5.10;;
62927;SDS011;51070;52.236;-0.892;2023-06-10T13:42:18;5.90;;;5.40;;
62927;SDS011;51070;52.236;-0.892;2023-06-10T13:44:45;6.50;;;5.60;;
62927;SDS011;51070;52.236;-0.892;2023-06-10T13:47:12;5.30;;;4.80;;
62927;SDS011;51070;52.236;-0.892;2023-06-10T13:49:38;6.60;;;5.60;;
62927;SDS011;51070;52.236;-0.892;2023-06-10T13:52:05;5.50;;;5.10;;
62927;SDS011;51070;52.236;-0.892;2023-06-10T13:54:31;7.40;;;4.90;;
62927;SDS011;51070;52.236;-0.892;2023-06-10T13:56:57;6.80;;;4.80;;
62927;SDS011;51070;52.236;-0.892;2023-06-10T13:59:22;7.60;;;4.80;;
62927;SDS011;51070;52.236;-0.892;2023-06-10T14:01:48;5.80;;;4.50;;
62927;SDS011;51070;52.236;-0.892;2023-06-10T14:04:13;5.30;;;4.00;;
62927;SDS011;51070;52.236;-0.892;2023-06-10T14:06:38;4.90;;;4.40;;
62927;SDS011;51070;52.236;-0.892;2023-06-10T14:09:04;4.50;;;4.10;;
62927;SDS011;51070;52.236;-0.892;2023-06-10T14:11:30;4.30;;;3.90;;
62927;SDS011;51070;52.236;-0.892;2023-06-10T14:13:56;5.90;;;4.80;;
62927;SDS011;51070;52.236;-0.892;2023-06-10T14:16:22;6.90;;;4.60;;
62927;SDS011;51070;52.236;-0.892;2023-06-10T14:18:48;5.80;;;3.90;;
62927;SDS011;51070;52.236;-0.892;2023-06-10T14:21:15;4.80;;;4.30;;
62927;SDS011;51070;52.236;-0.892;2023-06-10T14:23:40;5.40;;;4.80;;
62927;SDS011;51070;52.236;-0.892;2023-06-10T14:26:06;6.00;;;4.20;;
62927;SDS011;51070;52.236;-0.892;2023-06-10T14:28:32;7.00;;;4.40;;
62927;SDS011;51070;52.236;-0.892;2023-06-10T14:30:58;4.70;;;4.20;;
62927;SDS011;51070;52.236;-0.892;2023-06-10T14:33:23;4.80;;;4.40;;
62927;SDS011;51070;52.236;-0.892;2023-06-10T14:35:49;4.40;;;4.00;;
62927;SDS011;51070;52.236;-0.892;2023-06-10T14:38:14;5.60;;;4.40;;
62927;SDS011;51070;52.236;-0.892;2023-06-10T14:40:40;4.40;;;3.80;;
62927;SDS011;51070;52.236;-0.892;2023-06-10T14:43:05;5.30;;;4.20;;
62927;SDS011;51070;52.236;-0.892;2023-06-10T14:45:38;5.00;;;4.30;;
62927;SDS011;51070;52.236;-0.892;2023-06-10T14:48:04;5.20;;;4.60;;
62927;SDS011;51070;52.236;-0.892;2023-06-10T14:50:31;5.70;;;4.70;;
62927;SDS011;51070;52.236;-0.892;2023-06-10T14:52:57;5.60;;;4.50;;
62927;SDS011;51070;52.236;-0.892;2023-06-10T14:55:23;5.40;;;4.90;;
62927;SDS011;51070;52.236;-0.892;2023-06-10T14:57:49;5.90;;;4.50;;
62927;SDS011;51070;52.236;-0.892;2023-06-10T15:00:15;5.10;;;4.00;;
62927;SDS011;51070;52.236;-0.892;2023-06-10T15:02:45;4.80;;;4.40;;
62927;SDS011;51070;52.236;-0.892;2023-06-10T15:05:13;4.70;;;4.20;;